createdAt,value
2018-12-29T00:01:38.760Z,16.00
2018-12-29T00:07:19.332Z,15.90
2018-12-29T00:10:00.520Z,15.90
2018-12-29T00:12:41.510Z,15.90
2018-12-29T00:15:22.648Z,15.90
2018-12-29T00:18:04.095Z,15.90
2018-12-29T00:20:44.608Z,15.80
2018-12-29T00:23:25.591Z,15.80
2018-12-29T00:26:05.019Z,15.70
2018-12-29T00:28:53.411Z,15.80
2018-12-29T00:31:41.816Z,15.80
2018-12-29T00:34:22.544Z,15.80
2018-12-29T00:37:01.921Z,15.80
2018-12-29T00:39:50.329Z,15.80
2018-12-29T00:42:38.799Z,15.90
2018-12-29T00:45:19.695Z,15.90
2018-12-29T00:48:00.396Z,15.80
2018-12-29T00:50:41.439Z,15.70
2018-12-29T00:53:22.508Z,15.80
2018-12-29T00:56:03.096Z,15.80
2018-12-29T01:01:42.637Z,15.70
2018-12-29T01:04:23.185Z,15.70
2018-12-29T01:07:04.739Z,15.70
2018-12-29T01:09:45.499Z,15.60
2018-12-29T01:12:26.663Z,15.60
2018-12-29T01:15:10.117Z,15.60
2018-12-29T01:17:50.195Z,15.60
2018-12-29T01:20:31.504Z,15.70
2018-12-29T01:23:12.684Z,15.70
2018-12-29T01:25:53.412Z,15.70
2018-12-29T01:34:31.191Z,15.70
2018-12-29T01:37:11.796Z,15.60
2018-12-29T01:39:52.640Z,15.50
2018-12-29T01:42:33.579Z,15.40
2018-12-29T01:45:17.559Z,15.50
2018-12-29T01:47:57.127Z,15.50
2018-12-29T01:50:37.724Z,15.60
2018-12-29T01:53:19.056Z,15.50
2018-12-29T01:55:59.739Z,15.60
2018-12-29T01:58:40.360Z,15.60
2018-12-29T02:01:21.116Z,15.60
2018-12-29T02:04:02.308Z,15.70
2018-12-29T02:06:42.804Z,15.60
2018-12-29T02:09:23.603Z,15.60
2018-12-29T02:12:04.676Z,15.60
2018-12-29T02:14:45.248Z,15.60
2018-12-29T02:17:25.912Z,15.60
2018-12-29T02:20:06.611Z,15.50
2018-12-29T02:22:47.299Z,15.50
2018-12-29T02:25:28.925Z,15.40
2018-12-29T02:28:10.609Z,15.40
2018-12-29T02:30:51.840Z,15.30
2018-12-29T02:33:33.292Z,15.30
2018-12-29T02:36:14.708Z,15.40
2018-12-29T02:38:56.137Z,15.40
2018-12-29T02:41:36.733Z,15.40
2018-12-29T02:44:18.141Z,15.50
2018-12-29T02:46:59.492Z,15.40
2018-12-29T02:49:41.073Z,15.50
2018-12-29T02:52:22.525Z,15.50
2018-12-29T02:55:03.374Z,15.50
2018-12-29T02:57:44.082Z,15.40
2018-12-29T03:00:24.693Z,15.30
2018-12-29T03:03:06.396Z,15.20
2018-12-29T03:05:47.810Z,15.20
2018-12-29T03:08:28.983Z,15.20
2018-12-29T03:11:09.564Z,15.20
2018-12-29T03:13:50.448Z,15.30
2018-12-29T03:16:31.029Z,15.30
2018-12-29T03:19:12.624Z,15.40
2018-12-29T03:21:53.463Z,15.60
2018-12-29T03:24:34.514Z,15.60
2018-12-29T03:27:15.091Z,15.50
2018-12-29T03:29:55.929Z,15.50
2018-12-29T03:32:37.478Z,15.70
2018-12-29T03:35:18.688Z,15.70
2018-12-29T03:38:00.105Z,15.70
2018-12-29T03:40:40.833Z,15.70
2018-12-29T03:43:22.002Z,15.70
2018-12-29T03:46:03.379Z,15.70
2018-12-29T03:51:42.760Z,15.70
2018-12-29T03:54:24.256Z,15.50
2018-12-29T03:57:05.733Z,15.50
2018-12-29T03:59:46.303Z,15.40
2018-12-29T04:02:27.004Z,15.50
2018-12-29T04:05:08.284Z,15.40
2018-12-29T04:07:49.013Z,15.40
2018-12-29T04:10:29.932Z,15.40
2018-12-29T04:13:11.215Z,15.40
2018-12-29T04:15:57.894Z,15.40
2018-12-29T04:18:34.348Z,15.40
2018-12-29T04:21:15.403Z,15.30
2018-12-29T04:23:55.963Z,15.40
2018-12-29T04:26:37.400Z,15.30
2018-12-29T04:29:18.435Z,15.20
2018-12-29T04:31:59.785Z,15.40
2018-12-29T04:34:41.283Z,15.30
2018-12-29T04:37:22.038Z,15.30
2018-12-29T04:40:03.499Z,15.30
2018-12-29T04:42:44.765Z,15.40
2018-12-29T04:45:25.548Z,15.50
2018-12-29T04:48:06.288Z,15.40
2018-12-29T04:50:45.768Z,15.60
2018-12-29T04:53:34.170Z,15.70
2018-12-29T04:56:14.843Z,15.70
2018-12-29T04:58:56.095Z,15.80
2018-12-29T05:01:36.751Z,15.80
2018-12-29T05:04:18.195Z,15.70
2018-12-29T05:06:59.724Z,15.80
2018-12-29T05:09:40.537Z,15.80
2018-12-29T05:12:22.013Z,15.70
2018-12-29T05:15:02.588Z,15.70
2018-12-29T05:17:43.316Z,15.70
2018-12-29T05:20:24.704Z,15.60
2018-12-29T05:23:06.455Z,15.60
2018-12-29T05:25:47.216Z,15.50
2018-12-29T05:28:28.560Z,15.40
2018-12-29T05:31:09.860Z,15.30
2018-12-29T05:33:53.515Z,15.30
2018-12-29T05:36:22.975Z,15.20
2018-12-29T05:38:52.432Z,15.10
2018-12-29T05:41:21.916Z,15.10
2018-12-29T05:43:51.343Z,15.00
2018-12-29T05:46:20.808Z,15.10
2018-12-29T05:48:50.325Z,15.10
2018-12-29T05:51:19.787Z,15.10
2018-12-29T05:53:49.249Z,15.20
2018-12-29T05:56:18.636Z,15.20
2018-12-29T05:58:48.041Z,15.30
2018-12-29T06:01:17.497Z,15.30
2018-12-29T06:03:46.968Z,15.20
2018-12-29T06:06:16.472Z,15.20
2018-12-29T06:08:45.972Z,15.30
2018-12-29T06:11:15.380Z,15.30
2018-12-29T06:13:44.788Z,15.40
2018-12-29T06:16:14.183Z,15.40
2018-12-29T06:18:43.600Z,15.50
2018-12-29T06:21:12.988Z,15.70
2018-12-29T06:23:42.384Z,15.60
2018-12-29T06:26:11.854Z,15.70
2018-12-29T06:28:41.617Z,15.70
2018-12-29T06:31:11.063Z,15.80
2018-12-29T06:33:40.455Z,15.80
2018-12-29T06:36:09.837Z,15.50
2018-12-29T06:38:40.621Z,15.30
2018-12-29T06:41:10.055Z,15.30
2018-12-29T06:43:39.506Z,15.30
2018-12-29T06:46:09.069Z,15.20
2018-12-29T06:48:38.536Z,15.10
2018-12-29T06:51:08.036Z,15.30
2018-12-29T06:53:37.496Z,15.10
2018-12-29T06:56:07.009Z,15.00
2018-12-29T06:58:36.541Z,15.20
2018-12-29T07:01:07.563Z,15.50
2018-12-29T07:03:37.024Z,15.50
2018-12-29T07:06:06.480Z,15.50
2018-12-29T07:08:35.987Z,15.70
2018-12-29T07:11:05.447Z,15.70
2018-12-29T07:13:34.832Z,15.80
2018-12-29T07:16:04.259Z,15.90
2018-12-29T07:18:33.707Z,15.90
2018-12-29T07:21:03.198Z,16.00
2018-12-29T07:23:33.977Z,16.00
2018-12-29T07:26:03.420Z,16.00
2018-12-29T07:28:33.032Z,16.00
2018-12-29T07:31:02.556Z,16.00
2018-12-29T07:33:32.024Z,16.20
2018-12-29T07:36:01.413Z,16.10
2018-12-29T07:38:30.940Z,16.10
2018-12-29T07:41:00.416Z,16.20
2018-12-29T07:43:29.837Z,16.30
2018-12-29T07:45:59.260Z,16.00
2018-12-29T07:48:28.640Z,16.10
2018-12-29T07:50:59.072Z,16.00
2018-12-29T07:53:28.516Z,16.10
2018-12-29T07:55:57.996Z,16.30
2018-12-29T07:58:27.350Z,16.30
2018-12-29T08:00:56.728Z,16.30
2018-12-29T08:03:26.200Z,16.30
2018-12-29T08:05:55.711Z,16.30
2018-12-29T08:08:25.120Z,16.20
2018-12-29T08:10:54.647Z,16.20
2018-12-29T08:13:24.075Z,16.20
2018-12-29T08:15:53.460Z,16.10
2018-12-29T08:18:22.988Z,16.10
2018-12-29T08:20:52.409Z,16.10
2018-12-29T08:23:21.820Z,16.00
2018-12-29T08:25:51.268Z,16.00
2018-12-29T08:28:20.757Z,16.00
2018-12-29T08:30:50.276Z,15.80
2018-12-29T08:33:19.740Z,15.80
2018-12-29T08:35:49.191Z,15.50
2018-12-29T08:38:18.646Z,15.50
2018-12-29T08:40:48.168Z,15.40
2018-12-29T08:43:17.648Z,15.50
2018-12-29T08:45:47.116Z,15.60
2018-12-29T08:48:16.563Z,15.70
2018-12-29T08:50:45.964Z,15.80
2018-12-29T08:53:15.476Z,15.80
2018-12-29T08:55:44.938Z,15.90
2018-12-29T08:58:14.427Z,15.80
2018-12-29T09:00:43.921Z,15.80
2018-12-29T09:03:13.408Z,15.60
2018-12-29T09:05:42.846Z,15.60
2018-12-29T09:08:12.316Z,15.60
2018-12-29T09:10:41.707Z,15.80
2018-12-29T09:13:11.303Z,15.70
2018-12-29T09:15:40.680Z,15.60
2018-12-29T09:18:10.084Z,15.80
2018-12-29T09:20:39.564Z,15.70
2018-12-29T09:23:09.011Z,15.80
2018-12-29T09:25:38.457Z,16.00
2018-12-29T09:28:07.980Z,16.10
2018-12-29T09:30:37.381Z,16.10
2018-12-29T09:33:06.772Z,16.30
2018-12-29T09:35:36.276Z,16.30
2018-12-29T09:38:05.731Z,16.50
2018-12-29T09:40:35.188Z,16.40
2018-12-29T09:43:04.662Z,16.50
2018-12-29T09:45:34.123Z,16.70
2018-12-29T09:48:03.575Z,16.80
2018-12-29T09:50:32.984Z,16.70
2018-12-29T09:53:02.401Z,16.70
2018-12-29T09:55:31.882Z,16.80
2018-12-29T09:58:01.345Z,16.70
2018-12-29T10:00:30.760Z,16.60
2018-12-29T10:03:00.164Z,16.80
2018-12-29T10:05:29.577Z,16.80
2018-12-29T10:07:59.036Z,16.90
2018-12-29T10:10:28.421Z,16.70
2018-12-29T10:12:57.910Z,16.40
2018-12-29T10:15:27.372Z,16.20
2018-12-29T10:17:57.027Z,16.00
2018-12-29T10:20:26.504Z,16.10
2018-12-29T10:22:55.988Z,16.00
2018-12-29T10:25:25.379Z,16.10
2018-12-29T10:27:54.903Z,16.20
2018-12-29T10:30:24.305Z,16.10
2018-12-29T10:32:53.715Z,16.10
2018-12-29T10:35:23.211Z,16.30
2018-12-29T10:37:52.648Z,16.20
2018-12-29T10:40:22.128Z,16.20
2018-12-29T10:42:51.596Z,16.30
2018-12-29T10:45:21.110Z,16.40
2018-12-29T10:47:50.595Z,16.40
2018-12-29T10:50:20.096Z,16.60
2018-12-29T10:52:49.520Z,16.80
2018-12-29T10:55:19.012Z,16.80
2018-12-29T10:57:48.395Z,16.80
2018-12-29T11:00:17.887Z,16.80
2018-12-29T11:02:47.379Z,16.90
2018-12-29T11:05:16.782Z,17.00
2018-12-29T11:07:46.231Z,17.00
2018-12-29T11:10:17.731Z,16.90
2018-12-29T11:12:46.963Z,16.90
2018-12-29T11:15:16.655Z,17.00
2018-12-29T11:17:46.411Z,17.10
2018-12-29T11:20:15.875Z,17.10
2018-12-29T11:22:45.252Z,17.20
2018-12-29T11:25:14.705Z,17.10
2018-12-29T11:27:44.067Z,17.30
2018-12-29T11:30:13.479Z,17.30
2018-12-29T11:32:42.946Z,17.30
2018-12-29T11:35:12.436Z,17.40
2018-12-29T11:37:41.833Z,17.40
2018-12-29T11:40:11.300Z,17.40
2018-12-29T11:42:40.781Z,17.40
2018-12-29T11:45:10.224Z,17.40
2018-12-29T11:47:40.146Z,17.40
2018-12-29T11:50:09.524Z,17.40
2018-12-29T11:52:39.056Z,17.30
2018-12-29T11:55:08.532Z,17.30
2018-12-29T11:57:37.992Z,17.10
2018-12-29T12:00:08.948Z,17.00
2018-12-29T12:02:38.419Z,16.90
2018-12-29T12:05:07.865Z,16.90
2018-12-29T12:07:37.426Z,16.90
2018-12-29T12:10:06.936Z,16.90
2018-12-29T12:12:36.796Z,16.90
2018-12-29T12:15:07.192Z,16.90
2018-12-29T12:17:36.664Z,16.90
2018-12-29T12:20:06.358Z,16.80
2018-12-29T12:22:35.828Z,16.80
2018-12-29T12:25:05.592Z,16.80
2018-12-29T12:27:35.028Z,16.60
2018-12-29T12:30:04.693Z,16.60
2018-12-29T12:32:34.152Z,16.70
2018-12-29T12:35:04.072Z,16.80
2018-12-29T12:37:33.543Z,16.70
2018-12-29T12:40:03.048Z,16.80
2018-12-29T12:42:32.480Z,16.70
2018-12-29T12:45:01.954Z,16.70
2018-12-29T12:47:31.447Z,16.60
2018-12-29T12:50:00.960Z,16.60
2018-12-29T12:52:30.981Z,16.80
2018-12-29T12:55:00.436Z,16.90
2018-12-29T12:57:29.879Z,16.90
2018-12-29T13:00:09.111Z,17.00
2018-12-29T13:02:39.103Z,17.00
2018-12-29T13:05:08.709Z,17.10
2018-12-29T13:07:38.086Z,17.20
2018-12-29T13:10:08.228Z,17.30
2018-12-29T13:12:38.452Z,17.30
2018-12-29T13:15:07.931Z,17.10
2018-12-29T13:17:37.447Z,17.20
2018-12-29T13:20:06.995Z,17.30
2018-12-29T13:22:36.445Z,17.30
2018-12-29T13:25:05.951Z,17.30
2018-12-29T13:27:35.621Z,17.40
2018-12-29T13:30:05.389Z,17.40
2018-12-29T13:32:34.839Z,17.40
2018-12-29T13:35:05.002Z,17.20
2018-12-29T13:37:34.499Z,17.30
2018-12-29T13:40:04.063Z,17.20
2018-12-29T13:42:33.503Z,17.00
2018-12-29T13:45:02.971Z,17.00
2018-12-29T13:47:32.461Z,17.00
2018-12-29T13:50:01.925Z,16.90
2018-12-29T13:52:31.383Z,16.80
2018-12-29T13:55:00.882Z,16.70
2018-12-29T13:57:30.329Z,16.60
2018-12-29T13:59:59.785Z,16.60
2018-12-29T14:02:29.268Z,16.80
2018-12-29T14:04:58.736Z,16.80
2018-12-29T14:07:28.215Z,16.80
2018-12-29T14:09:58.088Z,16.90
2018-12-29T14:12:27.591Z,16.90
2018-12-29T14:14:57.084Z,16.90
2018-12-29T14:17:26.608Z,17.00
2018-12-29T14:19:56.377Z,17.10
2018-12-29T14:22:25.879Z,17.10
2018-12-29T14:24:55.358Z,17.20
2018-12-29T14:27:24.883Z,17.20
2018-12-29T14:29:54.400Z,17.20
2018-12-29T14:32:24.288Z,17.30
2018-12-29T14:34:56.625Z,17.30
2018-12-29T14:37:26.078Z,17.40
2018-12-29T14:39:55.535Z,17.40
2018-12-29T14:42:25.013Z,17.50
2018-12-29T14:44:54.512Z,17.60
2018-12-29T14:47:24.060Z,17.50
2018-12-29T14:49:53.520Z,17.50
2018-12-29T14:52:22.955Z,17.50
2018-12-29T14:54:52.640Z,17.50
2018-12-29T14:57:22.107Z,17.60
2018-12-29T14:59:51.568Z,17.60
2018-12-29T15:02:21.026Z,17.50
2018-12-29T15:04:50.604Z,17.50
2018-12-29T15:07:20.099Z,17.60
2018-12-29T15:09:49.564Z,17.40
2018-12-29T15:12:19.069Z,17.40
2018-12-29T15:14:48.523Z,17.30
2018-12-29T15:17:17.999Z,17.30
2018-12-29T15:19:47.488Z,17.30
2018-12-29T15:22:17.010Z,17.20
2018-12-29T15:24:46.985Z,17.30
2018-12-29T15:27:16.432Z,17.20
2018-12-29T15:29:45.870Z,17.10
2018-12-29T15:32:16.045Z,17.10
2018-12-29T15:34:45.495Z,17.20
2018-12-29T15:37:14.970Z,17.20
2018-12-29T15:39:44.483Z,17.20
2018-12-29T15:42:13.987Z,17.10
2018-12-29T15:44:43.448Z,17.10
2018-12-29T15:47:12.941Z,17.00
2018-12-29T15:49:42.387Z,17.00
2018-12-29T15:52:11.843Z,17.10
2018-12-29T15:54:42.075Z,17.10
2018-12-29T15:57:11.571Z,17.10
2018-12-29T15:59:41.346Z,17.10
2018-12-29T16:02:10.774Z,17.10
2018-12-29T16:04:40.244Z,17.20
2018-12-29T16:07:09.759Z,17.10
2018-12-29T16:09:39.819Z,17.10
2018-12-29T16:12:09.402Z,17.20
2018-12-29T16:14:38.855Z,17.20
2018-12-29T16:17:08.357Z,17.20
2018-12-29T16:19:37.859Z,17.30
2018-12-29T16:22:07.343Z,17.30
2018-12-29T16:24:36.806Z,17.30
2018-12-29T16:27:06.812Z,17.30
2018-12-29T16:29:36.387Z,17.20
2018-12-29T16:32:05.849Z,17.10
2018-12-29T16:34:35.317Z,17.20
2018-12-29T16:37:04.739Z,17.20
2018-12-29T16:39:34.898Z,17.30
2018-12-29T16:42:04.327Z,17.40
2018-12-29T16:44:33.819Z,17.40
2018-12-29T16:47:03.369Z,17.40
2018-12-29T16:49:33.386Z,17.50
2018-12-29T16:52:02.871Z,17.50
2018-12-29T16:54:32.307Z,17.40
2018-12-29T16:57:01.827Z,17.50
2018-12-29T16:59:31.582Z,17.50
2018-12-29T17:02:01.101Z,17.50
2018-12-29T17:04:30.567Z,17.40
2018-12-29T17:07:00.043Z,17.40
2018-12-29T17:09:30.008Z,17.40
2018-12-29T17:11:59.497Z,17.30
2018-12-29T17:14:28.956Z,17.20
2018-12-29T17:16:58.435Z,17.20
2018-12-29T17:19:27.916Z,17.20
2018-12-29T17:21:57.356Z,17.30
2018-12-29T17:24:26.841Z,17.30
2018-12-29T17:26:56.696Z,17.40
2018-12-29T17:29:26.342Z,17.30
2018-12-29T17:31:55.855Z,17.30
2018-12-29T17:34:25.311Z,17.20
2018-12-29T17:36:55.400Z,17.10
2018-12-29T17:39:24.866Z,17.20
2018-12-29T17:41:54.295Z,17.20
2018-12-29T17:44:23.792Z,17.10
2018-12-29T17:46:53.247Z,17.10
2018-12-29T17:49:23.944Z,17.20
2018-12-29T17:51:53.998Z,17.10
2018-12-29T17:54:23.439Z,17.20
2018-12-29T17:56:52.883Z,17.00
2018-12-29T17:59:22.342Z,17.10
2018-12-29T18:01:52.191Z,17.30
2018-12-29T18:04:21.639Z,17.40
2018-12-29T18:06:51.287Z,17.40
2018-12-29T18:09:20.816Z,17.50
2018-12-29T18:11:50.271Z,17.60
2018-12-29T18:14:19.704Z,17.70
2018-12-29T18:16:49.204Z,17.60
2018-12-29T18:19:18.943Z,17.80
2018-12-29T18:21:48.398Z,17.80
2018-12-29T18:24:17.828Z,17.70
2018-12-29T18:26:47.274Z,17.60
2018-12-29T18:29:16.708Z,17.70
2018-12-29T18:31:46.133Z,17.80
2018-12-29T18:34:15.584Z,17.80
2018-12-29T18:36:45.081Z,17.70
2018-12-29T18:39:14.544Z,17.80
2018-12-29T18:41:44.009Z,17.90
2018-12-29T18:44:13.912Z,17.90
2018-12-29T18:46:43.393Z,17.90
2018-12-29T18:49:12.951Z,17.80
2018-12-29T18:51:42.465Z,17.70
2018-12-29T18:54:11.923Z,17.50
2018-12-29T18:56:45.608Z,17.50
2018-12-29T18:59:12.649Z,17.60
2018-12-29T19:01:42.108Z,17.60
2018-12-29T19:04:11.601Z,17.50
2018-12-29T19:06:41.047Z,17.50
2018-12-29T19:09:10.556Z,17.50
2018-12-29T19:11:40.028Z,17.50
2018-12-29T19:14:10.129Z,17.50
2018-12-29T19:16:39.595Z,17.30
2018-12-29T19:19:09.084Z,17.30
2018-12-29T19:21:38.579Z,17.30
2018-12-29T19:24:08.292Z,17.30
2018-12-29T19:26:38.376Z,17.20
2018-12-29T19:29:07.916Z,17.10
2018-12-29T19:31:44.283Z,17.20
2018-12-29T19:34:08.510Z,17.40
2018-12-29T19:36:38.024Z,17.50
2018-12-29T19:39:08.461Z,17.60
2018-12-29T19:41:37.911Z,17.60
2018-12-29T19:44:07.449Z,17.50
2018-12-29T19:46:37.217Z,17.40
2018-12-29T19:49:06.734Z,17.60
2018-12-29T19:51:36.209Z,17.60
2018-12-29T19:54:05.682Z,17.70
2018-12-29T19:56:35.223Z,17.80
2018-12-29T19:59:05.191Z,17.90
2018-12-29T20:01:34.656Z,17.90
2018-12-29T20:04:04.648Z,18.00
2018-12-29T20:06:34.109Z,17.90
2018-12-29T20:09:04.840Z,17.90
2018-12-29T20:11:34.293Z,17.80
2018-12-29T20:14:03.851Z,17.90
2018-12-29T20:16:33.324Z,17.80
2018-12-29T20:19:02.795Z,17.90
2018-12-29T20:21:32.343Z,17.80
2018-12-29T20:24:01.862Z,17.80
2018-12-29T20:26:31.332Z,17.80
2018-12-29T20:29:00.836Z,17.90
2018-12-29T20:31:30.352Z,17.90
2018-12-29T20:33:59.889Z,17.80
2018-12-29T20:36:29.386Z,17.70
2018-12-29T20:38:59.052Z,17.70
2018-12-29T20:41:28.687Z,17.70
2018-12-29T20:43:58.243Z,17.60
2018-12-29T20:46:27.792Z,17.60
2018-12-29T20:48:57.264Z,17.60
2018-12-29T20:51:26.804Z,17.60
2018-12-29T20:53:56.264Z,17.50
2018-12-29T20:56:25.741Z,17.30
2018-12-29T20:58:55.262Z,17.30
2018-12-29T21:01:24.788Z,17.20
2018-12-29T21:03:54.295Z,17.20
2018-12-29T21:06:23.781Z,17.20
2018-12-29T21:08:53.296Z,17.20
2018-12-29T21:11:22.751Z,17.30
2018-12-29T21:13:52.239Z,17.20
2018-12-29T21:16:21.695Z,17.20
2018-12-29T21:18:51.580Z,17.30
2018-12-29T21:21:21.031Z,17.20
2018-12-29T21:23:50.491Z,17.20
2018-12-29T21:26:19.985Z,17.20
2018-12-29T21:28:49.478Z,17.20
2018-12-29T21:31:19.239Z,17.20
2018-12-29T21:33:48.824Z,17.20
2018-12-29T21:36:18.281Z,17.20
2018-12-29T21:38:47.764Z,17.20
2018-12-29T21:41:17.291Z,17.30
2018-12-29T21:43:46.754Z,17.10
2018-12-29T21:46:16.207Z,17.10
2018-12-29T21:48:45.724Z,16.90
2018-12-29T21:51:15.187Z,17.00
2018-12-29T21:53:44.640Z,17.10
2018-12-29T21:56:14.142Z,17.00
2018-12-29T21:58:43.600Z,17.00
2018-12-29T22:01:13.048Z,16.90
2018-12-29T22:03:42.507Z,16.90
2018-12-29T22:06:11.975Z,16.80
2018-12-29T22:08:41.473Z,16.80
2018-12-29T22:11:11.033Z,16.70
2018-12-29T22:13:40.530Z,16.70
2018-12-29T22:16:09.987Z,16.70
2018-12-29T22:18:39.508Z,16.60
2018-12-29T22:21:08.949Z,16.60
2018-12-29T22:23:38.852Z,16.70
2018-12-29T22:26:08.311Z,16.60
2018-12-29T22:28:37.768Z,16.60
2018-12-29T22:31:07.219Z,16.60
2018-12-29T22:33:36.697Z,16.60
2018-12-29T22:36:06.447Z,16.60
2018-12-29T22:38:35.932Z,16.60
2018-12-29T22:41:05.371Z,16.60
2018-12-29T22:43:34.845Z,16.70
2018-12-29T22:46:04.294Z,16.70
2018-12-29T22:48:33.855Z,16.70
2018-12-29T22:51:03.331Z,16.70
2018-12-29T22:53:32.765Z,16.60
2018-12-29T22:56:02.360Z,16.50
2018-12-29T22:58:31.848Z,16.60
2018-12-29T23:01:01.608Z,16.60
2018-12-29T23:03:31.552Z,16.80
2018-12-29T23:06:01.080Z,17.00
2018-12-29T23:08:30.542Z,17.00
2018-12-29T23:11:00.379Z,16.90
2018-12-29T23:13:29.828Z,16.80
2018-12-29T23:15:59.283Z,16.60
2018-12-29T23:18:28.728Z,16.60
2018-12-29T23:20:58.179Z,16.60
2018-12-29T23:23:27.734Z,16.40
2018-12-29T23:25:57.505Z,16.40
2018-12-29T23:28:26.952Z,16.30
2018-12-29T23:30:56.735Z,16.20
2018-12-29T23:33:26.278Z,16.20
2018-12-29T23:35:55.735Z,16.20
2018-12-29T23:38:25.219Z,16.20
2018-12-29T23:40:54.711Z,16.20
2018-12-29T23:43:24.167Z,16.20
2018-12-29T23:45:53.644Z,16.10
2018-12-29T23:48:23.109Z,16.20
2018-12-29T23:51:05.336Z,16.20
2018-12-29T23:53:23.760Z,16.30
2018-12-29T23:55:53.514Z,16.20
2018-12-29T23:58:22.989Z,16.20
